Time;durP1;ratioP1;P1;durP2;ratioP2;P2;SDS_P1;SDS_P2;PMS_P1;PMS_P2;Temp;Humidity;BMP_temperature;BMP_pressure;BME280_temperature;BME280_humidity;BME280_pressure;Samples;Min_cycle;Max_cycle;Signal;HPM_P1;HPM_P2
2022/11/02 00:00:40;;;;;;;1.87;1.43;;;;;;;;;;5112689;28;20451;-73
2022/11/02 00:03:07;;;;;;;4.07;1.20;;;;;;;;;;5112202;28;20472;-72
2022/11/02 00:05:34;;;;;;;3.00;1.33;;;;;;;;;;5112648;28;20444;-75
2022/11/02 00:08:03;;;;;;;1.47;1.10;;;;;;;;;;5112485;28;20472;-73
2022/11/02 00:10:30;;;;;;;1.40;0.83;;;;;;;;;;5112481;28;20457;-73
2022/11/02 00:12:57;;;;;;;2.50;0.87;;;;;;;;;;5112804;28;20446;-72
2022/11/02 00:15:25;;;;;;;3.10;1.23;;;;;;;;;;5111539;28;20459;-72
2022/11/02 00:17:55;;;;;;;4.00;1.40;;;;;;;;;;5112547;28;20860;-72
2022/11/02 00:20:22;;;;;;;2.67;1.30;;;;;;;;;;5112076;28;20459;-72
2022/11/02 00:22:52;;;;;;;3.17;1.30;;;;;;;;;;5112307;28;20923;-72
2022/11/02 00:25:21;;;;;;;2.33;1.50;;;;;;;;;;5111375;28;20765;-73
2022/11/02 00:27:48;;;;;;;1.10;1.00;;;;;;;;;;5112384;28;20462;-72
2022/11/02 00:30:16;;;;;;;1.33;1.10;;;;;;;;;;5112053;28;20460;-72
2022/11/02 00:32:43;;;;;;;2.10;1.10;;;;;;;;;;5112460;28;20447;-72
2022/11/02 00:35:10;;;;;;;1.80;1.13;;;;;;;;;;5111627;28;20454;-72
2022/11/02 00:37:38;;;;;;;2.50;1.17;;;;;;;;;;5111957;28;20482;-72
2022/11/02 00:40:05;;;;;;;1.60;1.20;;;;;;;;;;5111528;28;20452;-72
2022/11/02 00:42:34;;;;;;;3.67;1.77;;;;;;;;;;5112105;28;20444;-72
2022/11/02 00:45:01;;;;;;;1.37;0.80;;;;;;;;;;5111916;28;20444;-72
2022/11/02 00:47:28;;;;;;;2.47;1.13;;;;;;;;;;5112265;28;20453;-73
2022/11/02 00:49:55;;;;;;;3.00;1.37;;;;;;;;;;5112121;28;20485;-72
2022/11/02 00:52:22;;;;;;;1.10;0.87;;;;;;;;;;5111279;28;20935;-72
2022/11/02 00:54:49;;;;;;;1.13;1.03;;;;;;;;;;5111985;28;20455;-72
2022/11/02 00:57:16;;;;;;;2.53;1.40;;;;;;;;;;5110401;28;20504;-73
2022/11/02 00:59:45;;;;;;;4.17;1.20;;;;;;;;;;5112008;28;20517;-72
2022/11/02 01:02:12;;;;;;;5.70;1.60;;;;;;;;;;5105853;28;20447;-71
2022/11/02 01:04:39;;;;;;;3.60;1.50;;;;;;;;;;5111736;28;20803;-72
2022/11/02 01:07:06;;;;;;;2.20;1.33;;;;;;;;;;5110896;28;20452;-73
2022/11/02 01:09:33;;;;;;;1.83;1.03;;;;;;;;;;5111286;28;20452;-72
2022/11/02 01:12:01;;;;;;;4.47;1.50;;;;;;;;;;5111763;28;20534;-73
2022/11/02 01:14:28;;;;;;;3.30;1.20;;;;;;;;;;5110932;28;20452;-73
2022/11/02 01:16:56;;;;;;;4.70;1.53;;;;;;;;;;5111091;28;20494;-73
2022/11/02 01:19:24;;;;;;;1.83;1.17;;;;;;;;;;5110949;28;20447;-73
2022/11/02 01:21:51;;;;;;;4.43;1.50;;;;;;;;;;5111231;28;20508;-72
2022/11/02 01:24:18;;;;;;;4.17;1.17;;;;;;;;;;5110719;28;20455;-72
2022/11/02 01:26:46;;;;;;;1.37;0.93;;;;;;;;;;5110517;28;20455;-73
2022/11/02 01:29:13;;;;;;;1.90;1.10;;;;;;;;;;5110638;28;20454;-71
2022/11/02 01:31:40;;;;;;;2.77;1.80;;;;;;;;;;5111764;28;20862;-72
2022/11/02 01:34:09;;;;;;;3.43;1.00;;;;;;;;;;5110935;28;20454;-72
2022/11/02 01:36:36;;;;;;;2.40;1.07;;;10.00;99.90;;;;;;5110826;28;20836;-72
2022/11/02 01:39:03;;;;;;;3.47;1.20;;;9.10;99.90;;;;;;5112759;28;20471;-72
2022/11/02 01:41:30;;;;;;;1.63;1.13;;;;;;;;;;5115313;28;20803;-72
2022/11/02 01:43:59;;;;;;;3.80;1.50;;;;;;;;;;5115162;28;20448;-72
2022/11/02 01:46:30;;;;;;;3.00;1.30;;;;;;;;;;5114993;28;20452;-73
2022/11/02 01:48:59;;;;;;;2.30;1.20;;;;;;;;;;5115180;28;20466;-73
2022/11/02 01:51:30;;;;;;;2.60;1.20;;;;;;;;;;5114523;28;20443;-73
2022/11/02 01:54:01;;;;;;;5.13;1.37;;;;;;;;;;5114947;28;20457;-73
2022/11/02 01:56:30;;;;;;;1.70;1.33;;;;;;;;;;5114802;28;20489;-72
2022/11/02 01:58:59;;;;;;;2.80;1.33;;;;;;;;;;5115525;28;20447;-73
2022/11/02 02:01:27;;;;;;;1.30;0.73;;;;;;;;;;5115119;28;20455;-73
2022/11/02 02:03:54;;;;;;;2.27;2.07;;;;;;;;;;5115240;28;20455;-75
2022/11/02 02:06:24;;;;;;;3.17;1.07;;;;;;;;;;5113722;28;20665;-72
2022/11/02 02:08:54;;;;;;;4.60;1.57;;;;;;;;;;5114972;28;20958;-73
2022/11/02 02:11:28;;;;;;;2.97;1.20;;;;;;;;;;5113981;28;20444;-73
2022/11/02 02:13:56;;;;;;;1.33;1.07;;;;;;;;;;5114838;28;20810;-72
2022/11/02 02:16:26;;;;;;;2.40;1.47;;;;;;;;;;5113520;28;20459;-73
2022/11/02 02:18:56;;;;;;;1.53;1.10;;;;;;;;;;5114822;28;20455;-72
2022/11/02 02:21:32;;;;;;;2.47;0.87;;;;;;;;;;5114029;28;20443;-73
2022/11/02 02:24:07;;;;;;;1.23;0.97;;;;;;;;;;5114749;28;20447;-72
2022/11/02 02:26:46;;;;;;;4.47;1.03;;;;;;;;;;5100883;28;20443;-72
2022/11/02 02:29:19;;;;;;;1.87;0.90;;;;;;;;;;5114272;28;20801;-72
2022/11/02 02:31:49;;;;;;;4.40;1.37;;;;;;;;;;5114570;28;21010;-72
2022/11/02 02:34:18;;;;;;;2.03;1.53;;;;;;;;;;5113521;28;20451;-72
2022/11/02 02:36:49;;;;;;;2.37;1.00;;;;;;;;;;5113560;28;20478;-72
2022/11/02 02:39:18;;;;;;;3.43;1.27;;;;;;;;;;5113205;28;21015;-72
2022/11/02 02:41:49;;;;;;;1.53;1.30;;;;;;;;;;5114377;28;20451;-72
2022/11/02 02:44:18;;;;;;;2.00;1.03;;;;;;;;;;5113538;28;20448;-72
2022/11/02 02:46:47;;;;;;;1.53;1.07;;;;;;;;;;5113607;28;20467;-72
2022/11/02 02:49:17;;;;;;;4.10;1.43;;;;;;;;;;5110724;28;20480;-72
2022/11/02 02:51:45;;;;;;;5.90;1.10;;;;;;;;;;5106973;28;20447;-72
2022/11/02 02:54:17;;;;;;;1.90;1.03;;;;;;;;;;5113384;28;20961;-72
2022/11/02 02:56:47;;;;;;;2.17;1.40;;;;;;;;;;5113164;28;20470;-73
2022/11/02 02:59:17;;;;;;;2.53;1.47;;;;;;;;;;5114023;28;20448;-73
2022/11/02 03:01:45;;;;;;;1.93;1.33;;;;;;;;;;5114008;28;20810;-72
2022/11/02 03:04:12;;;;;;;1.20;0.93;;;;;;;;;;5113230;28;20453;-73
2022/11/02 03:06:41;;;;;;;1.50;0.90;;;;;;;;;;5113336;28;20440;-72
2022/11/02 03:09:10;;;;;;;1.83;1.10;;;;;;;;;;5113397;28;20475;-73
2022/11/02 03:11:43;;;;;;;1.30;1.00;;;;;;;;;;5112903;28;20453;-72
2022/11/02 03:14:14;;;;;;;1.60;1.00;;;;;;;;;;5113246;28;20447;-73
2022/11/02 03:16:54;;;;;;;2.63;1.60;;;;;;;;;;5113237;28;20474;-73
2022/11/02 03:19:24;;;;;;;1.50;0.87;;;;;;;;;;5112891;28;20904;-72
2022/11/02 03:21:56;;;;;;;2.43;1.00;;;;;;;;;;5113705;28;20758;-73
2022/11/02 03:24:27;;;;;;;2.57;1.27;;;;;;;;;;5112495;28;20455;-71
2022/11/02 03:27:01;;;;;;;2.70;1.30;;;;;;;;;;5112563;28;20526;-73
2022/11/02 03:29:31;;;;;;;1.47;0.90;;;;;;;;;;5113774;28;20468;-73
2022/11/02 03:32:02;;;;;;;2.97;2.73;;;;;;;;;;5113582;28;20445;-72
2022/11/02 03:34:32;;;;;;;2.50;1.07;;;;;;;;;;5113695;28;20440;-73
2022/11/02 03:37:01;;;;;;;1.83;1.43;;;;;;;;;;5112407;28;20470;-72
2022/11/02 03:39:30;;;;;;;2.37;1.60;;;;;;;;;;5113350;28;20813;-72
2022/11/02 03:42:00;;;;;;;2.80;1.57;;;;;;;;;;5113104;28;20969;-72
2022/11/02 03:44:29;;;;;;;2.37;2.17;;;;;;;;;;5113172;28;20452;-72
2022/11/02 03:46:58;;;;;;;2.60;1.10;;;;;;;;;;5112834;28;20494;-72
2022/11/02 03:49:28;;;;;;;2.27;1.20;;;;;;;;;;5112090;28;20555;-72
2022/11/02 03:51:57;;;;;;;1.47;1.10;;;;;;;;;;5113076;28;20677;-72
2022/11/02 03:54:30;;;;;;;1.60;1.40;;;;;;;;;;5112596;28;20471;-72
2022/11/02 03:57:00;;;;;;;5.00;1.50;;;;;;;;;;5112410;28;20464;-72
2022/11/02 03:59:31;;;;;;;1.20;0.90;;;;;;;;;;5112473;28;20443;-72
2022/11/02 04:01:58;;;;;;;2.13;1.07;;;;;;;;;;5110343;28;20477;-72
2022/11/02 04:04:25;;;;;;;3.70;1.03;;;;;;;;;;5112118;28;20454;-73
2022/11/02 04:06:54;;;;;;;1.60;1.20;;;;;;;;;;5111936;28;20448;-73
2022/11/02 04:09:21;;;;;;;10.70;1.67;;;;;;;;;;5112220;28;20881;-73
2022/11/02 04:14:40;;;;;;;1.57;1.23;;;;;;;;;;5112363;28;20886;-73
2022/11/02 04:19:53;;;;;;;3.00;1.30;;;;;;;;;;5112473;28;20501;-73
2022/11/02 04:25:18;;;;;;;3.67;1.30;;;;;;;;;;5111152;28;20505;-72
2022/11/02 04:27:46;;;;;;;1.80;1.40;;;;;;;;;;5111990;28;20451;-72
2022/11/02 04:30:13;;;;;;;1.83;1.27;;;;;;;;;;5111609;28;20467;-72
2022/11/02 04:35:26;;;;;;;3.73;1.30;;;;;;;;;;5111189;28;20784;-72
2022/11/02 04:40:45;;;;;;;2.40;1.77;;;;;;;;;;5095717;28;20428;-72
2022/11/02 04:43:12;;;;;;;1.60;1.10;;;;;;;;;;5111629;28;20444;-72
2022/11/02 04:45:39;;;;;;;1.10;0.97;;;;;;;;;;5111304;28;20476;-72
2022/11/02 04:48:07;;;;;;;7.20;1.63;;;;;;;;;;5110845;28;20583;-72
2022/11/02 04:50:34;;;;;;;8.33;2.80;;;;;;;;;;5111700;28;20992;-72
2022/11/02 04:53:05;;;;;;;1.63;1.20;;;;;;;;;;5111769;28;20446;-71
2022/11/02 04:55:34;;;;;;;1.47;1.30;;;;;;;;;;5111371;28;20468;-72
2022/11/02 04:58:02;;;;;;;4.00;1.33;;;;;;;;;;5111098;28;20479;-71
2022/11/02 05:00:29;;;;;;;2.10;1.33;;;;;;;;;;5111426;28;20436;-76
2022/11/02 05:02:56;;;;;;;2.60;0.90;;;;;;;;;;5111973;28;20476;-73
2022/11/02 05:05:23;;;;;;;3.30;1.80;;;;;;;;;;5108996;28;20446;-73
2022/11/02 05:07:51;;;;;;;1.50;1.07;;;;;;;;;;5111504;28;20458;-73
2022/11/02 05:10:19;;;;;;;10.57;1.97;;;9.20;99.90;;;;;;5108019;28;20444;-72
2022/11/02 05:12:46;;;;;;;1.80;1.10;;;9.10;99.90;;;;;;5104336;28;20455;-73
2022/11/02 05:15:12;;;;;;;1.60;1.07;;;9.10;99.90;;;;;;5110677;28;20440;-73
2022/11/02 05:17:39;;;;;;;2.23;1.40;;;9.00;99.90;;;;;;5111220;28;20479;-73
2022/11/02 05:20:07;;;;;;;1.90;1.30;;;9.00;99.90;;;;;;5110971;28;20527;-73
2022/11/02 05:22:34;;;;;;;1.63;1.10;;;9.00;99.90;;;;;;5111613;28;20491;-73
2022/11/02 05:25:01;;;;;;;6.07;1.53;;;8.90;99.90;;;;;;5111047;28;20455;-73
2022/11/02 05:27:29;;;;;;;3.40;1.47;;;8.90;99.90;;;;;;5111167;28;20516;-73
2022/11/02 05:29:56;;;;;;;4.13;1.40;;;8.90;99.90;;;;;;5111644;28;20455;-73
2022/11/02 05:32:23;;;;;;;2.20;1.27;;;8.90;99.90;;;;;;5110967;28;20444;-73
2022/11/02 05:34:49;;;;;;;1.30;1.00;;;8.80;99.90;;;;;;5110714;28;20448;-73
2022/11/02 05:37:16;;;;;;;1.50;0.80;;;8.90;99.90;;;;;;5110963;28;20447;-72
2022/11/02 05:39:43;;;;;;;1.90;1.40;;;8.90;99.90;;;;;;5110597;28;20968;-73
2022/11/02 05:42:10;;;;;;;1.47;1.30;;;8.90;99.90;;;;;;5110308;28;20455;-73
2022/11/02 05:44:38;;;;;;;1.40;0.90;;;8.90;99.90;;;;;;5111291;28;20452;-73
2022/11/02 05:47:05;;;;;;;1.83;1.30;;;8.90;99.90;;;;;;5110253;28;20455;-73
2022/11/02 05:49:32;;;;;;;2.57;1.73;;;9.00;99.90;;;;;;5111077;28;20478;-73
2022/11/02 05:51:59;;;;;;;1.37;0.90;;;9.00;99.90;;;;;;5111301;28;20810;-73
2022/11/02 05:54:26;;;;;;;3.53;1.47;;;8.90;99.90;;;;;;5111210;28;20447;-73
2022/11/02 05:56:53;;;;;;;4.60;1.77;;;8.90;99.90;;;;;;5110618;28;20946;-73
2022/11/02 05:59:20;;;;;;;5.97;1.50;;;8.80;99.90;;;;;;5110844;28;20490;-72
2022/11/02 06:01:48;;;;;;;3.60;1.57;;;8.90;99.90;;;;;;5111262;28;20440;-73
2022/11/02 06:04:15;;;;;;;1.83;1.00;;;8.90;99.90;;;;;;5110103;28;20440;-76
2022/11/02 06:06:42;;;;;;;4.00;1.50;;;9.00;99.90;;;;;;5110354;28;20540;-72
2022/11/02 06:09:09;;;;;;;3.17;1.30;;;9.00;99.90;;;;;;5110599;28;20451;-75
2022/11/02 06:11:36;;;;;;;1.70;1.07;;;8.90;99.90;;;;;;5110136;28;20458;-77
2022/11/02 06:14:03;;;;;;;2.30;1.07;;;8.90;99.90;;;;;;5110651;28;20456;-73
2022/11/02 06:16:30;;;;;;;1.77;1.37;;;8.90;99.90;;;;;;5110838;28;20938;-74
2022/11/02 06:18:58;;;;;;;2.03;1.23;;;8.90;99.90;;;;;;5110738;28;20520;-74
2022/11/02 06:21:25;;;;;;;1.80;0.97;;;9.00;99.90;;;;;;5109907;28;20447;-75
2022/11/02 06:23:52;;;;;;;4.30;1.40;;;9.10;99.90;;;;;;5110783;28;20954;-75
2022/11/02 06:26:19;;;;;;;4.43;2.00;;;9.10;99.90;;;;;;5109176;28;20538;-76
2022/11/02 06:28:46;;;;;;;4.00;1.90;;;9.10;99.90;;;;;;5113408;28;20827;-77
2022/11/02 06:31:16;;;;;;;2.17;1.43;;;9.20;99.90;;;;;;5108795;28;20447;-74
2022/11/02 06:33:43;;;;;;;1.30;1.20;;;9.20;99.90;;;;;;5110867;28;20871;-73
2022/11/02 06:36:11;;;;;;;3.83;1.20;;;9.30;99.90;;;;;;5111569;28;20809;-73
2022/11/02 06:38:38;;;;;;;1.77;1.30;;;9.20;99.90;;;;;;5112809;28;20478;-73
2022/11/02 06:41:05;;;;;;;1.70;1.00;;;9.20;99.90;;;;;;5106856;28;20467;-73
2022/11/02 06:43:33;;;;;;;7.50;1.80;;;9.30;99.90;;;;;;5111261;28;20443;-73
2022/11/02 06:46:00;;;;;;;2.10;1.50;;;9.30;99.90;;;;;;5110993;28;20455;-74
2022/11/02 06:48:28;;;;;;;2.23;1.27;;;9.30;99.90;;;;;;5110141;28;20755;-75
2022/11/02 06:50:55;;;;;;;2.90;1.50;;;9.40;99.90;;;;;;5110515;28;20482;-69
2022/11/02 06:53:23;;;;;;;5.77;1.33;;;9.50;99.90;;;;;;5109718;28;20803;-70
2022/11/02 06:55:53;;;;;;;4.90;1.40;;;9.60;99.90;;;;;;5103911;28;20817;-69
2022/11/02 06:58:21;;;;;;;2.40;1.70;;;9.60;99.90;;;;;;5111961;28;20499;-70
2022/11/02 07:00:47;;;;;;;3.63;1.20;;;9.90;99.90;;;;;;5113013;28;20832;-69
2022/11/02 07:03:15;;;;;;;2.50;1.30;;;9.90;99.90;;;;;;5112385;28;20452;-69
2022/11/02 07:05:42;;;;;;;2.37;1.67;;;9.90;99.90;;;;;;5113518;28;20455;-70
2022/11/02 07:08:09;;;;;;;4.00;1.30;;;9.90;99.90;;;;;;5112923;27;20461;-70
2022/11/02 07:10:37;;;;;;;3.13;1.47;;;10.20;99.90;;;;;;5112362;28;20618;-70
2022/11/02 07:13:04;;;;;;;1.10;0.87;;;10.20;99.90;;;;;;5112676;28;20486;-70
2022/11/02 07:15:31;;;;;;;2.47;1.10;;;10.20;99.90;;;;;;5109880;28;20453;-72
2022/11/02 07:17:57;;;;;;;2.63;1.10;;;10.20;99.90;;;;;;5113841;28;20479;-72
2022/11/02 07:20:24;;;;;;;3.87;1.67;;;10.20;99.90;;;;;;5109415;28;20448;-72
2022/11/02 07:22:55;;;;;;;1.80;1.33;;;10.20;99.90;;;;;;5112713;28;20827;-71
2022/11/02 07:25:22;;;;;;;4.40;2.30;;;10.30;99.90;;;;;;5112907;28;20441;-72
2022/11/02 07:27:51;;;;;;;3.40;1.67;;;10.40;99.90;;;;;;5113164;28;20482;-72
2022/11/02 07:30:18;;;;;;;3.43;1.37;;;10.50;99.90;;;;;;5112544;28;20450;-72
2022/11/02 07:32:46;;;;;;;3.00;1.00;;;10.50;99.90;;;;;;5112671;28;20528;-71
2022/11/02 07:35:14;;;;;;;2.00;1.40;;;10.90;99.90;;;;;;5112536;28;20447;-71
2022/11/02 07:37:41;;;;;;;5.50;1.70;;;10.80;99.90;;;;;;5112390;28;20452;-73
2022/11/02 07:40:10;;;;;;;3.50;1.63;;;10.80;99.90;;;;;;5111864;28;20457;-73
2022/11/02 07:42:43;;;;;;;4.00;1.90;;;10.90;99.90;;;;;;5112773;28;20451;-69
2022/11/02 07:45:12;;;;;;;3.93;2.23;;;11.00;99.90;;;;;;5113022;28;20517;-73
2022/11/02 07:47:43;;;;;;;6.63;1.70;;;11.10;99.90;;;;;;5099465;28;20932;-73
2022/11/02 07:50:10;;;;;;;2.20;1.47;;;11.10;99.90;;;;;;5111695;28;20483;-72
2022/11/02 07:52:44;;;;;;;2.20;1.37;;;11.20;99.90;;;;;;5112923;28;20541;-73
2022/11/02 07:55:11;;;;;;;1.77;1.20;;;11.30;99.90;;;;;;5112689;28;20451;-73
2022/11/02 07:57:37;;;;;;;1.70;1.20;;;11.40;99.90;;;;;;5112605;28;20785;-72
2022/11/02 08:00:05;;;;;;;3.87;1.20;;;11.50;99.90;;;;;;5112169;28;20808;-71
2022/11/02 08:02:34;;;;;;;5.77;1.50;;;11.70;99.90;;;;;;5112184;28;20444;-70
2022/11/02 08:05:01;;;;;;;1.10;0.70;;;11.80;99.90;;;;;;5112882;28;20446;-71
2022/11/02 08:07:27;;;;;;;2.83;1.00;;;12.00;14.70;;;;;;5112895;28;20517;-72
2022/11/02 08:09:54;;;;;;;5.43;2.03;;;12.10;1.00;;;;;;5112015;28;20448;-71
2022/11/02 08:12:21;;;;;;;2.10;0.97;;;12.20;1.00;;;;;;5112121;28;20706;-73
2022/11/02 08:14:48;;;;;;;3.20;1.10;;;12.30;1.00;;;;;;5112631;28;20439;-73
2022/11/02 08:17:15;;;;;;;3.93;1.53;;;12.40;1.00;;;;;;5112336;28;20798;-72
2022/11/02 08:19:43;;;;;;;1.60;1.00;;;12.40;1.00;;;;;;5111671;28;20479;-73
2022/11/02 08:22:10;;;;;;;2.37;1.63;;;12.50;1.00;;;;;;5111747;28;20459;-73
2022/11/02 08:24:36;;;;;;;4.17;1.40;;;12.60;1.00;;;;;;5110578;28;20443;-74
2022/11/02 08:27:03;;;;;;;1.20;0.97;;;12.80;99.90;;;;;;5108884;28;21121;-70
2022/11/02 08:29:31;;;;;;;1.60;0.87;;;13.00;99.90;;;;;;5112627;28;20467;-72
2022/11/02 08:31:58;;;;;;;1.90;1.37;;;13.10;88.60;;;;;;5111758;28;20447;-72
2022/11/02 08:34:25;;;;;;;3.30;1.30;;;13.10;33.70;;;;;;5110885;28;20440;-73
2022/11/02 08:36:53;;;;;;;1.30;0.90;;;13.20;1.00;;;;;;5111947;28;20452;-73
2022/11/02 08:39:20;;;;;;;2.40;0.80;;;13.30;1.00;;;;;;5110913;28;20498;-73
2022/11/02 08:41:46;;;;;;;2.00;1.20;;;13.30;1.00;;;;;;5112088;28;20440;-73
2022/11/02 08:44:13;;;;;;;3.13;1.33;;;13.40;1.00;;;;;;5103792;28;20443;-73
2022/11/02 08:46:40;;;;;;;4.50;1.20;;;13.40;1.00;;;;;;5111771;28;20454;-73
2022/11/02 08:49:07;;;;;;;1.60;0.90;;;13.50;1.00;;;;;;5110445;28;20794;-73
2022/11/02 08:51:33;;;;;;;2.60;1.60;;;13.60;99.90;;;;;;5112338;28;20428;-73
2022/11/02 08:54:01;;;;;;;4.60;1.60;;;13.50;99.90;;;;;;5111019;28;20450;-73
2022/11/02 08:56:28;;;;;;;3.30;1.20;;;13.60;99.90;;;;;;5111637;28;20787;-73
2022/11/02 08:58:55;;;;;;;2.50;1.30;;;13.60;99.90;;;;;;5112134;28;20486;-73
2022/11/02 09:01:22;;;;;;;1.63;0.80;;;13.60;99.90;;;;;;5110173;28;20440;-72
2022/11/02 09:03:49;;;;;;;1.70;1.10;;;13.60;1.00;;;;;;5111031;28;20472;-73
2022/11/02 09:06:15;;;;;;;5.27;0.90;;;13.70;99.90;;;;;;5110529;28;20919;-73
2022/11/02 09:08:42;;;;;;;3.63;1.00;;;13.80;99.90;;;;;;5111645;28;20817;-73
2022/11/02 09:11:10;;;;;;;2.20;0.63;;;13.90;55.80;;;;;;5111087;28;20439;-73
2022/11/02 09:13:38;;;;;;;1.93;0.93;;;13.90;79.00;;;;;;5110765;28;20946;-73
2022/11/02 09:16:05;;;;;;;3.90;1.20;;;13.90;25.90;;;;;;5110932;28;20846;-73
2022/11/02 09:18:32;;;;;;;2.70;1.00;;;14.00;99.90;;;;;;5111485;28;20471;-73
2022/11/02 09:21:02;;;;;;;1.30;1.10;;;14.10;1.00;;;;;;5108734;28;20448;-74
2022/11/02 09:23:28;;;;;;;0.77;0.70;;;14.10;99.90;;;;;;5111351;28;20440;-74
2022/11/02 09:25:55;;;;;;;2.40;1.07;;;14.10;99.90;;;;;;5111670;28;20444;-73
2022/11/02 09:28:23;;;;;;;1.40;1.03;;;14.20;91.20;;;;;;5110567;28;20451;-74
2022/11/02 09:30:50;;;;;;;2.43;0.83;;;14.10;99.90;;;;;;5110721;28;20447;-73
2022/11/02 09:33:17;;;;;;;2.60;0.93;;;14.20;99.90;;;;;;5110672;28;20458;-72
2022/11/02 09:35:46;;;;;;;3.47;0.73;;;14.30;99.90;;;;;;5110886;28;20551;-72
2022/11/02 09:38:13;;;;;;;5.17;1.57;;;14.40;42.10;;;;;;5106398;28;20481;-73
2022/11/02 09:40:43;;;;;;;2.43;0.77;;;14.40;1.00;;;;;;5111013;28;20432;-73
2022/11/02 09:43:19;;;;;;;1.33;0.70;;;14.40;99.90;;;;;;5110122;28;20440;-73
2022/11/02 09:45:54;;;;;;;1.37;0.80;;;14.40;99.90;;;;;;5110130;28;20455;-73
2022/11/02 09:48:26;;;;;;;2.17;1.40;;;14.40;57.20;;;;;;5110588;28;20769;-73
2022/11/02 09:50:59;;;;;;;2.73;1.37;;;14.40;1.00;;;;;;5110764;28;20475;-73
2022/11/02 09:53:32;;;;;;;1.47;0.70;;;14.50;1.00;;;;;;5110235;28;20914;-72
2022/11/02 09:56:02;;;;;;;3.47;0.73;;;14.50;1.00;;;;;;5106785;28;20437;-72
2022/11/02 09:58:35;;;;;;;1.07;0.70;;;14.60;1.00;;;;;;5110720;28;20439;-72
2022/11/02 10:01:13;;;;;;;3.23;0.63;;;14.50;1.00;;;;;;5114026;28;20440;-70
2022/11/02 10:03:56;;;;;;;3.33;1.17;;;14.60;1.00;;;;;;5114456;28;20923;-72
2022/11/02 10:06:25;;;;;;;1.63;0.90;;;14.60;1.00;;;;;;5113791;28;20436;-73
2022/11/02 10:09:01;;;;;;;2.03;0.73;;;14.70;1.00;;;;;;5114809;28;20490;-73
2022/11/02 10:11:40;;;;;;;1.93;0.90;;;14.70;1.00;;;;;;5111613;28;20918;-73
2022/11/02 10:14:13;;;;;;;2.43;0.70;;;14.60;1.00;;;;;;5110547;28;20442;-73
2022/11/02 10:16:49;;;;;;;1.60;0.80;;;14.70;99.90;;;;;;5114921;28;20469;-72
2022/11/02 10:19:20;;;;;;;4.00;1.30;;;14.80;99.90;;;;;;5113669;28;20957;-73
2022/11/02 10:21:49;;;;;;;2.83;0.80;;;14.80;99.90;;;;;;5114670;28;20910;-74
2022/11/02 10:24:25;;;;;;;8.13;4.97;;;14.90;99.90;;;;;;5112977;28;20871;-75
2022/11/02 10:26:56;;;;;;;2.20;0.80;;;14.90;1.00;;;;;;5113299;28;20508;-73
2022/11/02 10:29:37;;;;;;;4.37;0.83;;;14.90;99.90;;;;;;5114285;28;20456;-73
2022/11/02 10:32:05;;;;;;;7.67;2.20;;;14.80;99.90;;;;;;5113863;28;20431;-75
2022/11/02 10:34:34;;;;;;;2.40;0.80;;;14.80;99.90;;;;;;5113965;28;20434;-73
2022/11/02 10:37:23;;;;;;;2.77;0.70;;;14.80;1.00;;;;;;5114496;28;20774;-73
2022/11/02 10:40:02;;;;;;;1.93;0.80;;;14.70;1.00;;;;;;5113748;28;20477;-76
2022/11/02 10:42:53;;;;;;;1.37;0.70;;;14.80;1.00;;;;;;5113748;28;20444;-74
2022/11/02 10:45:46;;;;;;;3.90;0.70;;;14.80;1.00;;;;;;5111118;28;20474;-73
2022/11/02 10:48:27;;;;;;;3.70;0.97;;;14.80;99.90;;;;;;5113217;27;20455;-72
2022/11/02 10:51:00;;;;;;;2.00;1.10;;;14.70;99.90;;;;;;5113729;28;20493;-73
2022/11/02 10:53:27;;;;;;;1.53;0.80;;;14.80;99.90;;;;;;5113326;28;20449;-73
2022/11/02 10:55:59;;;;;;;5.43;1.60;;;14.80;99.90;;;;;;5110317;28;20798;-76
2022/11/02 10:58:28;;;;;;;2.60;1.00;;;14.80;99.90;;;;;;5109857;28;20458;-74
2022/11/02 11:01:05;;;;;;;2.53;0.80;;;14.80;99.90;;;;;;5113859;28;20480;-75
2022/11/02 11:03:33;;;;;;;5.33;0.97;;;14.70;99.90;;;;;;5113886;28;20514;-73
2022/11/02 11:06:03;;;;;;;7.23;1.37;;;14.80;99.90;;;;;;5114092;28;20479;-73
2022/11/02 11:08:36;;;;;;;2.50;0.73;;;14.90;99.90;;;;;;5114040;28;20450;-74
2022/11/02 11:11:19;;;;;;;1.00;0.70;;;14.90;99.90;;;;;;5112298;28;20796;-73
2022/11/02 11:13:55;;;;;;;2.70;1.23;;;14.90;99.90;;;;;;5113378;28;20451;-75
2022/11/02 11:16:36;;;;;;;5.37;2.07;;;14.90;99.90;;;;;;5112875;28;20467;-74
2022/11/02 11:19:06;;;;;;;5.00;1.00;;;14.90;99.90;;;;;;5112909;28;21028;-73
2022/11/02 11:21:38;;;;;;;2.60;1.40;;;15.00;99.90;;;;;;5113160;28;20439;-73
2022/11/02 11:24:21;;;;;;;1.93;0.70;;;15.10;99.90;;;;;;5112504;28;20440;-70
2022/11/02 11:27:15;;;;;;;1.73;0.80;;;15.00;99.90;;;;;;5111930;28;20427;-71
2022/11/02 11:29:47;;;;;;;2.00;0.70;;;15.00;99.90;;;;;;5113487;28;20915;-71
2022/11/02 11:32:17;;;;;;;3.10;0.90;;;15.10;99.90;;;;;;5111286;28;20934;-73
2022/11/02 11:34:50;;;;;;;1.07;0.73;;;15.00;99.90;;;;;;5113162;28;20493;-74
2022/11/02 11:37:17;;;;;;;2.50;0.70;;;15.00;99.90;;;;;;5111619;28;20432;-73
2022/11/02 11:39:46;;;;;;;1.20;1.00;;;15.00;99.90;;;;;;5113155;28;20498;-72
2022/11/02 11:42:17;;;;;;;2.17;1.10;;;14.90;99.90;;;;;;5112153;28;20447;-72
2022/11/02 11:44:46;;;;;;;3.67;1.03;;;15.10;99.90;;;;;;5110833;28;20441;-70
2022/11/02 11:47:14;;;;;;;1.53;1.10;;;15.40;99.90;;;;;;5112373;28;20451;-71
2022/11/02 11:49:48;;;;;;;4.10;1.20;;;15.30;99.90;;;;;;5113269;28;20475;-71
2022/11/02 11:52:20;;;;;;;0.70;0.60;;;15.60;99.90;;;;;;5112314;28;20446;-71
2022/11/02 11:54:53;;;;;;;2.00;0.90;;;15.80;99.90;;;;;;5113330;28;20432;-71
2022/11/02 11:57:28;;;;;;;1.87;0.80;;;16.00;99.90;;;;;;5112473;28;20471;-71
2022/11/02 11:59:58;;;;;;;1.40;0.70;;;16.20;99.90;;;;;;5113210;28;20520;-72
2022/11/02 12:02:27;;;;;;;2.10;0.90;;;16.10;99.90;;;;;;5112317;28;20830;-72
2022/11/02 12:05:01;;;;;;;3.23;1.17;;;16.10;99.90;;;;;;5113193;28;20439;-72
2022/11/02 12:07:56;;;;;;;3.07;0.83;;;16.20;99.90;;;;;;5113251;28;20793;-72
2022/11/02 12:10:51;;;;;;;3.37;1.03;;;16.20;99.90;;;;;;5112629;28;20436;-72
2022/11/02 12:13:33;;;;;;;1.03;0.70;;;16.10;99.90;;;;;;5112049;28;20436;-72
2022/11/02 12:16:13;;;;;;;3.00;1.53;;;16.10;99.90;;;;;;5112805;28;20455;-71
2022/11/02 12:18:58;;;;;;;3.53;0.60;;;16.10;99.90;;;;;;5112733;28;20436;-71
2022/11/02 12:21:43;;;;;;;4.53;0.90;;;15.90;99.90;;;;;;5111936;28;20907;-72
2022/11/02 12:24:29;;;;;;;1.53;0.67;;;15.80;99.90;;;;;;5111444;28;20945;-71
2022/11/02 12:27:06;;;;;;;0.90;0.67;;;16.00;99.90;;;;;;5110281;28;20512;-71
2022/11/02 12:30:10;;;;;;;3.20;1.10;;;16.20;99.90;;;;;;5111693;28;21232;-71
2022/11/02 12:32:48;;;;;;;2.03;0.77;;;16.30;99.90;;;;;;5111470;28;20497;-71
2022/11/02 12:35:48;;;;;;;2.60;0.97;;;16.40;99.90;;;;;;5111341;28;20444;-71
2022/11/02 12:38:49;;;;;;;2.47;1.00;;;16.50;99.90;;;;;;5104623;28;20538;-71
2022/11/02 12:41:31;;;;;;;3.13;1.10;;;16.40;99.90;;;;;;5104671;28;20998;-71
2022/11/02 12:44:03;;;;;;;5.90;0.90;;;16.40;99.90;;;;;;5110920;28;20443;-70
2022/11/02 12:46:36;;;;;;;1.00;0.90;;;16.50;99.90;;;;;;5106160;28;20792;-72
2022/11/02 12:49:18;;;;;;;3.93;1.33;;;16.50;99.90;;;;;;5107512;28;20506;-72
2022/11/02 12:51:53;;;;;;;2.30;0.80;;;16.50;99.90;;;;;;5111718;28;20485;-71
2022/11/02 12:54:26;;;;;;;2.50;1.00;;;16.60;99.90;;;;;;5109779;28;20454;-71
2022/11/02 12:56:54;;;;;;;2.83;0.87;;;16.70;99.90;;;;;;5107556;28;20462;-71
2022/11/02 12:59:24;;;;;;;2.60;0.77;;;16.70;99.90;;;;;;5110930;28;20791;-72
2022/11/02 13:01:56;;;;;;;1.47;0.53;;;16.70;99.90;;;;;;5111249;28;20763;-72
2022/11/02 13:04:28;;;;;;;1.30;0.90;;;16.80;99.90;;;;;;5111221;28;20440;-72
2022/11/02 13:07:01;;;;;;;0.97;0.57;;;17.00;99.90;;;;;;5110460;28;20434;-72
2022/11/02 13:09:34;;;;;;;4.80;0.90;;;17.70;99.90;;;;;;5111377;28;20448;-71
2022/11/02 13:12:05;;;;;;;2.20;0.70;;;17.60;99.90;;;;;;5105575;28;20440;-72
2022/11/02 13:14:39;;;;;;;4.20;0.90;;;17.70;99.90;;;;;;5111183;28;20436;-72
2022/11/02 13:17:14;;;;;;;1.63;0.50;;;17.80;99.90;;;;;;5110779;28;20458;-72
2022/11/02 13:19:46;;;;;;;3.00;1.20;;;18.20;99.90;;;;;;5110950;28;20965;-72
2022/11/02 13:22:15;;;;;;;1.27;0.70;;;18.20;99.90;;;;;;5110598;28;20444;-73
2022/11/02 13:24:48;;;;;;;4.13;0.90;;;18.20;99.90;;;;;;5111198;28;20436;-74
2022/11/02 13:27:26;;;;;;;0.70;0.50;;;17.90;99.90;;;;;;5110739;28;20788;-72
2022/11/02 13:29:57;;;;;;;3.33;1.03;;;18.00;99.90;;;;;;5098478;28;20456;-73
2022/11/02 13:32:31;;;;;;;3.73;0.90;;;18.10;99.90;;;;;;5110251;28;20432;-73
2022/11/02 13:35:02;;;;;;;3.40;1.77;;;17.60;99.90;;;;;;5113313;28;20446;-72
2022/11/02 13:37:35;;;;;;;1.50;1.00;;;17.30;99.90;;;;;;5115509;28;20443;-73
2022/11/02 13:40:12;;;;;;;3.00;0.77;;;17.20;99.90;;;;;;5114901;28;20982;-70
2022/11/02 13:42:58;;;;;;;3.63;0.97;;;17.50;99.90;;;;;;5114822;28;20988;-73
2022/11/02 13:45:49;;;;;;;3.43;0.60;;;17.50;99.90;;;;;;5112055;28;20452;-73
2022/11/02 13:48:48;;;;;;;2.70;1.10;;;17.70;99.90;;;;;;5114563;28;20439;-73
2022/11/02 13:51:24;;;;;;;1.10;0.70;;;18.00;99.90;;;;;;5107996;28;20540;-72
2022/11/02 13:53:55;;;;;;;1.63;0.80;;;17.80;99.90;;;;;;5114089;28;20471;-72
2022/11/02 13:56:26;;;;;;;2.83;0.70;;;17.80;99.90;;;;;;5114605;28;20440;-73
2022/11/02 13:58:57;;;;;;;2.27;1.20;;;17.60;99.90;;;;;;5114791;28;20442;-73